Time;durP1;ratioP1;P1;durP2;ratioP2;P2;SDS_P1;SDS_P2;PMS_P1;PMS_P2;Temp;Humidity;BMP_temperature;BMP_pressure;BME280_temperature;BME280_humidity;BME280_pressure;Samples;Min_cycle;Max_cycle;Signal;HPM_P1;HPM_P2
2022/07/05 00:02:21;;;;;;;5.63;2.10;;;14.10;99.90;;;;;;5048715;28;20041;-76
2022/07/05 00:04:47;;;;;;;7.13;2.20;;;14.10;99.90;;;;;;5051380;28;20543;-76
2022/07/05 00:07:19;;;;;;;4.80;2.10;;;14.00;99.90;;;;;;5057664;28;20120;-74
2022/07/05 00:09:50;;;;;;;4.18;2.13;;;14.00;99.90;;;;;;5015201;28;20378;-73
2022/07/05 00:12:16;;;;;;;4.50;2.20;;;14.00;99.90;;;;;;5031248;28;20057;-72
2022/07/05 00:14:43;;;;;;;3.15;1.98;;;14.00;99.90;;;;;;5038239;28;20337;-73
2022/07/05 00:17:10;;;;;;;3.92;1.90;;;14.00;99.90;;;;;;5045345;28;20476;-72
2022/07/05 00:19:35;;;;;;;3.67;1.95;;;13.90;99.90;;;;;;5034920;28;20046;-73
2022/07/05 00:22:01;;;;;;;3.88;2.13;;;13.80;99.90;;;;;;5040708;28;20124;-73
2022/07/05 00:24:26;;;;;;;3.88;2.17;;;13.80;99.90;;;;;;5054685;28;20045;-73
2022/07/05 00:26:52;;;;;;;6.05;2.40;;;13.80;99.90;;;;;;5047853;28;20037;-73
2022/07/05 00:29:18;;;;;;;5.50;2.30;;;13.80;99.90;;;;;;5035978;28;20045;-74
2022/07/05 00:31:43;;;;;;;5.65;2.60;;;13.80;99.90;;;;;;5053926;28;20139;-74
2022/07/05 00:34:09;;;;;;;5.93;2.30;;;13.80;99.90;;;;;;5054522;28;20045;-74
2022/07/05 00:36:34;;;;;;;4.88;2.33;;;13.80;99.90;;;;;;5036918;28;20175;-74
2022/07/05 00:39:00;;;;;;;4.18;2.35;;;13.70;99.90;;;;;;5071270;28;20106;-73
2022/07/05 00:41:26;;;;;;;5.93;2.88;;;13.70;99.90;;;;;;5070557;28;20497;-73
2022/07/05 00:43:56;;;;;;;4.78;2.67;;;13.70;99.90;;;;;;5036297;28;20033;-73
2022/07/05 00:46:22;;;;;;;4.28;2.60;;;13.70;99.90;;;;;;5054057;28;20400;-74
2022/07/05 00:48:48;;;;;;;6.07;2.90;;;13.70;99.90;;;;;;5037635;28;20041;-74
2022/07/05 00:51:14;;;;;;;5.13;2.85;;;13.70;99.90;;;;;;5052020;28;20036;-73
2022/07/05 00:53:43;;;;;;;7.57;2.97;;;13.70;99.90;;;;;;5053159;28;20512;-74
2022/07/05 00:56:09;;;;;;;5.50;2.65;;;13.70;99.90;;;;;;5033610;28;20056;-74
2022/07/05 00:58:35;;;;;;;5.03;2.70;;;13.70;99.90;;;;;;5051100;28;20476;-74
2022/07/05 01:01:07;;;;;;;5.07;2.55;;;13.70;99.90;;;;;;5035757;28;20061;-74
2022/07/05 01:03:33;;;;;;;;;;;13.70;99.90;;;;;;5036524;28;20392;-73
2022/07/05 01:06:01;;;;;;;3.90;2.42;;;13.60;99.90;;;;;;5037321;28;20011;-75
2022/07/05 01:08:28;;;;;;;4.35;2.70;;;13.50;99.90;;;;;;5037304;28;20052;-75
2022/07/05 01:10:55;;;;;;;5.65;2.80;;;13.40;99.90;;;;;;5037220;28;20124;-72
2022/07/05 01:13:22;;;;;;;4.65;2.55;;;13.40;99.90;;;;;;5052446;28;20056;-73
2022/07/05 01:15:48;;;;;;;5.53;2.88;;;13.40;99.90;;;;;;5051999;28;20496;-74
2022/07/05 01:18:14;;;;;;;6.45;2.60;;;13.40;99.90;;;;;;5021631;28;20037;-73
2022/07/05 01:20:41;;;;;;;5.65;2.83;;;13.40;99.90;;;;;;5033799;28;20037;-73
2022/07/05 01:23:07;;;;;;;3.85;2.45;;;13.40;99.90;;;;;;5044227;28;20037;-73
2022/07/05 01:25:33;;;;;;;6.28;3.22;;;13.40;99.90;;;;;;5068105;28;20037;-73
2022/07/05 01:27:59;;;;;;;6.63;2.90;;;13.40;99.90;;;;;;5070217;28;20044;-73
2022/07/05 01:30:25;;;;;;;5.97;3.00;;;13.40;99.90;;;;;;5051804;28;20415;-73
2022/07/05 01:32:51;;;;;;;5.18;3.05;;;13.40;99.90;;;;;;5052430;28;20405;-73
2022/07/05 01:35:23;;;;;;;4.75;2.70;;;13.40;99.90;;;;;;5046533;28;20522;-74
2022/07/05 01:37:50;;;;;;;;;;;13.40;99.90;;;;;;5025618;28;20069;-73
2022/07/05 01:40:16;;;;;;;4.93;2.45;;;13.40;99.90;;;;;;5042343;28;19917;-73
2022/07/05 01:42:42;;;;;;;3.92;2.70;;;13.30;99.90;;;;;;5067090;28;20122;-73
2022/07/05 01:45:08;;;;;;;5.10;2.60;;;13.20;99.90;;;;;;5035450;28;20061;-72
2022/07/05 01:47:44;;;;;;;4.47;2.58;;;13.10;99.90;;;;;;5050040;28;20486;-74
2022/07/05 01:50:12;;;;;;;3.42;2.30;;;13.00;99.90;;;;;;5053386;28;20396;-73
2022/07/05 01:52:43;;;;;;;4.03;2.10;;;13.00;99.90;;;;;;5051991;28;20051;-73
2022/07/05 01:55:09;;;;;;;2.95;1.73;;;13.00;99.90;;;;;;5069639;28;20041;-73
2022/07/05 01:57:35;;;;;;;3.38;1.85;;;13.00;99.90;;;;;;5051197;28;20045;-73
2022/07/05 02:00:00;;;;;;;2.95;1.70;;;12.80;99.90;;;;;;5069497;28;20068;-73
2022/07/05 02:02:26;;;;;;;3.75;1.95;;;12.90;99.90;;;;;;5040851;28;20575;-73
2022/07/05 02:04:51;;;;;;;5.25;2.58;;;12.80;99.90;;;;;;5032928;28;20045;-73
2022/07/05 02:07:17;;;;;;;4.60;2.80;;;12.80;99.90;;;;;;5046823;28;20044;-73
2022/07/05 02:09:43;;;;;;;5.68;2.97;;;12.80;99.90;;;;;;5035400;28;20033;-73
2022/07/05 02:12:09;;;;;;;3.30;1.98;;;12.80;99.90;;;;;;5050873;28;20110;-73
2022/07/05 02:14:35;;;;;;;4.60;2.33;;;12.80;99.90;;;;;;5051164;28;20076;-72
2022/07/05 02:17:01;;;;;;;3.40;1.98;;;12.90;99.90;;;;;;5035760;28;20037;-74
2022/07/05 02:19:27;;;;;;;3.65;2.20;;;12.90;99.90;;;;;;5051211;28;20033;-74
2022/07/05 02:21:53;;;;;;;4.78;2.55;;;12.80;99.90;;;;;;5052679;28;20029;-74
2022/07/05 02:24:20;;;;;;;3.78;2.20;;;12.60;99.90;;;;;;5067918;28;20447;-74
2022/07/05 02:26:46;;;;;;;3.58;2.25;;;12.60;99.90;;;;;;5066676;28;20063;-73
2022/07/05 02:29:11;;;;;;;4.22;2.55;;;12.60;99.90;;;;;;5032772;28;20502;-73
2022/07/05 02:31:37;;;;;;;4.18;2.67;;;12.60;99.90;;;;;;5052037;28;20043;-74
2022/07/05 02:34:03;;;;;;;5.20;2.95;;;12.60;99.90;;;;;;5046893;28;20048;-73
2022/07/05 02:36:28;;;;;;;3.25;1.98;;;12.60;99.90;;;;;;5048784;28;20489;-73
2022/07/05 02:38:54;;;;;;;5.47;2.05;;;12.60;99.90;;;;;;5032458;28;20043;-74
2022/07/05 02:41:20;;;;;;;3.60;2.10;;;12.60;99.90;;;;;;5045919;28;20120;-74
2022/07/05 02:43:45;;;;;;;3.75;2.17;;;12.50;99.90;;;;;;5067843;28;20033;-74
2022/07/05 02:46:11;;;;;;;4.80;2.30;;;12.40;99.90;;;;;;5068328;28;20037;-73
2022/07/05 02:48:37;;;;;;;5.40;3.03;;;12.40;99.90;;;;;;5034582;28;20032;-73
2022/07/05 02:51:04;;;;;;;5.90;3.15;;;12.30;99.90;;;;;;5048925;28;20397;-74
2022/07/05 02:53:30;;;;;;;6.07;2.70;;;12.20;99.90;;;;;;5050357;28;20037;-73
2022/07/05 02:55:56;;;;;;;6.03;3.40;;;12.10;99.90;;;;;;5047594;28;20055;-74
2022/07/05 02:58:22;;;;;;;5.47;3.10;;;12.20;99.90;;;;;;5035735;28;20044;-73
2022/07/05 03:00:48;;;;;;;6.68;3.47;;;12.30;99.90;;;;;;5034602;28;20083;-73
2022/07/05 03:03:15;;;;;;;5.55;3.03;;;12.40;99.90;;;;;;5034497;28;20497;-73
2022/07/05 03:05:40;;;;;;;6.43;3.40;;;12.40;99.90;;;;;;5051180;28;20405;-73
2022/07/05 03:08:06;;;;;;;5.00;3.17;;;12.40;99.90;;;;;;5066108;28;20045;-73
2022/07/05 03:10:33;;;;;;;7.03;3.30;;;12.30;99.90;;;;;;5050223;28;20433;-73
2022/07/05 03:12:59;;;;;;;5.10;3.30;;;12.30;99.90;;;;;;5068409;28;20063;-73
2022/07/05 03:15:25;;;;;;;6.53;3.45;;;12.20;99.90;;;;;;5032777;28;20044;-74
2022/07/05 03:17:50;;;;;;;5.72;3.65;;;12.20;99.90;;;;;;5023240;28;20417;-74
2022/07/05 03:20:16;;;;;;;6.43;3.70;;;12.20;99.90;;;;;;5034329;28;20045;-73
2022/07/05 03:22:41;;;;;;;6.15;3.60;;;12.20;99.90;;;;;;5047296;28;20040;-73
2022/07/05 03:25:07;;;;;;;6.28;3.88;;;12.20;99.90;;;;;;5015197;28;20049;-73
2022/07/05 03:27:33;;;;;;;5.85;3.60;;;12.20;99.90;;;;;;5031938;28;20033;-73
2022/07/05 03:29:58;;;;;;;6.43;3.40;;;12.30;99.90;;;;;;5040521;28;20037;-73
2022/07/05 03:32:24;;;;;;;7.53;3.20;;;12.20;99.90;;;;;;5033518;28;20086;-73
2022/07/05 03:34:50;;;;;;;6.82;3.00;;;12.20;99.90;;;;;;5068496;28;20037;-73
2022/07/05 03:37:15;;;;;;;5.30;2.92;;;12.30;99.90;;;;;;5046513;28;20051;-73
2022/07/05 03:39:41;;;;;;;6.97;3.15;;;12.30;99.90;;;;;;5031882;28;20486;-73
2022/07/05 03:42:06;;;;;;;5.95;3.20;;;12.20;99.90;;;;;;5038059;28;20620;-73
2022/07/05 03:44:33;;;;;;;5.47;3.30;;;12.10;99.90;;;;;;5037563;28;20032;-73
2022/07/05 03:46:59;;;;;;;6.53;3.53;;;12.10;99.90;;;;;;5033309;28;20401;-73
2022/07/05 03:49:25;;;;;;;6.45;3.90;;;12.00;99.90;;;;;;5041576;28;20064;-73
2022/07/05 03:51:50;;;;;;;8.32;4.28;;;12.00;99.90;;;;;;5071512;28;20041;-73
2022/07/05 03:54:16;;;;;;;6.90;4.10;;;12.10;99.90;;;;;;5054774;28;20044;-73
2022/07/05 03:56:42;;;;;;;7.13;4.15;;;12.10;99.90;;;;;;5053735;28;20068;-72
2022/07/05 03:59:07;;;;;;;6.15;3.85;;;12.10;99.90;;;;;;5064681;28;20118;-72
2022/07/05 04:01:33;;;;;;;7.97;4.32;;;12.40;99.90;;;;;;5055217;28;20409;-73
2022/07/05 04:03:59;;;;;;;7.07;4.80;;;12.40;99.90;;;;;;5036358;28;20111;-73
2022/07/05 04:06:25;;;;;;;8.48;4.57;;;12.30;99.90;;;;;;5053297;28;20041;-73
2022/07/05 04:08:50;;;;;;;6.95;4.70;;;12.30;99.90;;;;;;5053705;28;20119;-73
2022/07/05 04:11:16;;;;;;;6.82;4.25;;;12.20;99.90;;;;;;5053566;28;20139;-73
2022/07/05 04:13:43;;;;;;;7.82;4.63;;;12.10;99.90;;;;;;5054989;28;20049;-73
2022/07/05 04:16:09;;;;;;;8.15;5.18;;;12.20;99.90;;;;;;5052668;28;20136;-73
2022/07/05 04:18:35;;;;;;;7.70;4.63;;;12.20;99.90;;;;;;5065552;28;20119;-73
2022/07/05 04:21:01;;;;;;;7.97;4.95;;;12.30;99.90;;;;;;5030604;28;20529;-74
2022/07/05 04:23:27;;;;;;;8.35;4.97;;;12.40;99.90;;;;;;5045933;28;20048;-75
2022/07/05 04:25:52;;;;;;;7.88;5.00;;;12.30;99.90;;;;;;5050190;28;20033;-74
2022/07/05 04:28:18;;;;;;;7.28;4.90;;;12.30;99.90;;;;;;5070490;28;20457;-73
2022/07/05 04:30:43;;;;;;;8.65;5.45;;;12.30;99.90;;;;;;5054113;28;20033;-73
2022/07/05 04:33:09;;;;;;;8.52;5.43;;;12.30;99.90;;;;;;5061753;28;20509;-73
2022/07/05 04:35:35;;;;;;;8.57;5.03;;;12.40;99.90;;;;;;5054621;28;20040;-73
2022/07/05 04:38:00;;;;;;;9.23;5.93;;;12.50;99.90;;;;;;5052747;28;20141;-74
2022/07/05 04:40:26;;;;;;;8.75;6.30;;;12.60;99.90;;;;;;5025703;28;20515;-73
2022/07/05 04:42:52;;;;;;;12.52;6.88;;;12.70;99.90;;;;;;5036669;28;20039;-73
2022/07/05 04:45:17;;;;;;;10.10;6.40;;;12.70;99.90;;;;;;5036012;28;20117;-73
2022/07/05 04:47:43;;;;;;;10.13;6.50;;;12.80;99.90;;;;;;5069444;28;20033;-74
2022/07/05 04:50:09;;;;;;;9.45;6.93;;;12.80;99.90;;;;;;5035488;28;20406;-74
2022/07/05 04:52:35;;;;;;;10.60;6.95;;;12.90;99.90;;;;;;5037147;28;20163;-75
2022/07/05 04:55:01;;;;;;;11.18;6.93;;;13.00;99.90;;;;;;5027093;28;20121;-75
2022/07/05 04:57:26;;;;;;;11.20;7.35;;;13.00;99.90;;;;;;5051476;28;20412;-74
2022/07/05 04:59:52;;;;;;;10.65;7.32;;;13.00;99.90;;;;;;5047220;28;20037;-74
2022/07/05 05:02:17;;;;;;;9.55;7.13;;;13.00;99.90;;;;;;5034146;28;20033;-75
2022/07/05 05:04:43;;;;;;;9.68;7.00;;;13.00;99.90;;;;;;5041366;28;20033;-74
2022/07/05 05:07:09;;;;;;;9.48;6.97;;;13.10;99.90;;;;;;5032758;28;20043;-74
2022/07/05 05:09:34;;;;;;;9.70;7.30;;;13.10;99.90;;;;;;5040584;28;20036;-74
2022/07/05 05:12:00;;;;;;;10.95;6.93;;;13.20;99.90;;;;;;5047818;28;20081;-74
2022/07/05 05:14:26;;;;;;;10.23;7.38;;;13.30;99.90;;;;;;5067236;28;20102;-74
2022/07/05 05:16:51;;;;;;;10.70;7.28;;;13.30;99.90;;;;;;5069949;28;20032;-74
2022/07/05 05:19:17;;;;;;;10.07;7.65;;;13.40;99.90;;;;;;5047189;28;20090;-74
2022/07/05 05:21:42;;;;;;;9.52;7.30;;;13.50;99.90;;;;;;5041156;28;20069;-74
2022/07/05 05:24:08;;;;;;;11.95;8.15;;;13.50;99.90;;;;;;5036061;28;20448;-74
2022/07/05 05:26:33;;;;;;;10.85;7.07;;;13.60;99.90;;;;;;5033714;28;20049;-75
2022/07/05 05:28:59;;;;;;;12.45;7.78;;;13.70;99.90;;;;;;5042089;28;20460;-75
2022/07/05 05:31:25;;;;;;;11.35;7.53;;;13.80;99.90;;;;;;5053470;28;20056;-74
2022/07/05 05:33:51;;;;;;;10.30;7.50;;;13.70;99.90;;;;;;5051887;28;20405;-74
2022/07/05 05:36:16;;;;;;;10.50;7.38;;;13.80;99.90;;;;;;5036406;28;20040;-74
2022/07/05 05:38:42;;;;;;;12.52;7.57;;;13.90;99.90;;;;;;5045735;28;20134;-75
2022/07/05 05:41:07;;;;;;;11.00;7.57;;;14.00;99.90;;;;;;5068284;28;20040;-74
2022/07/05 05:43:33;;;;;;;11.80;7.65;;;14.10;99.90;;;;;;5052830;28;20040;-74
2022/07/05 05:45:59;;;;;;;10.15;7.20;;;14.20;99.90;;;;;;5051589;28;20037;-74
2022/07/05 05:48:25;;;;;;;10.70;6.65;;;14.20;99.90;;;;;;5047998;28;20080;-75
2022/07/05 05:50:51;;;;;;;10.75;6.63;;;14.30;99.90;;;;;;5046445;28;20045;-74
2022/07/05 05:53:17;;;;;;;9.88;6.60;;;14.40;99.90;;;;;;5032904;28;20040;-74
2022/07/05 05:55:42;;;;;;;9.13;6.15;;;14.50;99.90;;;;;;5030211;28;20040;-74
2022/07/05 05:58:15;;;;;;;9.77;5.68;;;14.70;99.90;;;;;;5044986;28;20036;-75
2022/07/05 06:00:42;;;;;;;8.57;5.60;;;14.80;99.90;;;;;;5059652;28;20037;-74
2022/07/05 06:03:08;;;;;;;9.73;5.45;;;15.00;99.90;;;;;;5032933;28;20037;-75
2022/07/05 06:05:34;;;;;;;8.80;4.85;;;15.10;99.90;;;;;;5043881;28;20516;-75
2022/07/05 06:07:59;;;;;;;8.95;4.15;;;15.30;99.90;;;;;;5020780;28;20049;-75
2022/07/05 06:10:27;;;;;;;8.88;3.40;;;15.40;99.90;;;;;;5041592;28;20119;-75
2022/07/05 06:12:55;;;;;;;5.63;3.30;;;15.60;99.90;;;;;;5032356;28;20061;-75
2022/07/05 06:15:21;;;;;;;6.68;3.10;;;15.70;99.90;;;;;;5052623;28;20135;-75
2022/07/05 06:17:47;;;;;;;5.93;2.88;;;15.90;99.90;;;;;;5048677;28;20119;-75
2022/07/05 06:20:16;;;;;;;6.25;2.45;;;15.90;99.90;;;;;;5023056;28;20048;-75
2022/07/05 06:22:41;;;;;;;5.50;2.15;;;16.00;99.90;;;;;;5030466;28;20033;-75
2022/07/05 06:25:07;;;;;;;4.13;2.10;;;16.10;99.90;;;;;;5050532;28;20037;-73
2022/07/05 06:27:38;;;;;;;6.22;2.25;;;16.20;99.90;;;;;;5034677;28;20036;-76
2022/07/05 06:30:05;;;;;;;6.22;2.30;;;16.30;99.90;;;;;;5034237;28;20374;-76
2022/07/05 06:32:30;;;;;;;4.85;1.65;;;16.50;99.90;;;;;;5052413;28;20480;-76
2022/07/05 06:34:56;;;;;;;4.45;1.80;;;16.60;99.90;;;;;;5037587;28;20124;-76
2022/07/05 06:37:22;;;;;;;5.82;1.85;;;16.70;99.90;;;;;;5022472;28;20037;-76
2022/07/05 06:39:47;;;;;;;4.50;1.42;;;16.80;99.90;;;;;;5034381;28;20040;-75
2022/07/05 06:42:13;;;;;;;5.05;1.80;;;16.90;99.90;;;;;;5052164;28;20094;-75
2022/07/05 06:44:39;;;;;;;7.50;1.70;;;17.00;99.90;;;;;;5039288;28;20037;-76
2022/07/05 06:47:04;;;;;;;5.28;1.50;;;17.10;99.90;;;;;;5020804;28;20048;-75
2022/07/05 06:49:30;;;;;;;6.90;1.92;;;17.10;99.90;;;;;;5066998;28;20111;-76
2022/07/05 06:51:55;;;;;;;6.25;1.50;;;17.20;99.90;;;;;;5048769;28;20102;-76
2022/07/05 06:54:21;;;;;;;3.47;1.35;;;17.30;99.90;;;;;;5050167;28;20036;-77
2022/07/05 06:56:46;;;;;;;4.45;1.70;;;17.40;99.90;;;;;;5049472;28;20068;-77
2022/07/05 06:59:12;;;;;;;7.05;1.70;;;17.50;99.90;;;;;;5032490;28;20048;-76
2022/07/05 07:01:38;;;;;;;5.57;1.45;;;17.50;99.90;;;;;;5047204;28;20040;-76
2022/07/05 07:04:03;;;;;;;4.93;1.45;;;17.60;99.90;;;;;;5063298;28;20436;-76
2022/07/05 07:06:29;;;;;;;5.30;1.50;;;17.60;99.90;;;;;;5064541;28;20069;-76
2022/07/05 07:11:38;;;;;;;3.20;1.33;;;17.70;99.90;;;;;;5046475;28;20061;-76
2022/07/05 07:14:04;;;;;;;5.07;1.52;;;17.80;99.90;;;;;;5051145;28;20055;-76
2022/07/05 07:16:30;;;;;;;4.25;1.40;;;17.80;99.90;;;;;;5050687;28;20087;-76
2022/07/05 07:18:56;;;;;;;4.00;1.30;;;17.90;99.90;;;;;;5031952;28;20091;-76
2022/07/05 07:21:21;;;;;;;6.65;1.40;;;18.00;99.90;;;;;;5066777;28;20033;-76
2022/07/05 07:23:47;;;;;;;4.20;1.13;;;18.00;99.90;;;;;;5049229;28;20413;-76
2022/07/05 07:26:13;;;;;;;4.55;1.15;;;18.10;99.90;;;;;;5054190;28;20044;-76
2022/07/05 07:28:40;;;;;;;3.78;1.10;;;18.00;99.90;;;;;;5035004;28;20451;-76
2022/07/05 07:31:06;;;;;;;6.03;1.73;;;18.00;99.90;;;;;;5038086;28;20401;-77
2022/07/05 07:33:32;;;;;;;4.28;1.10;;;18.20;99.90;;;;;;5054231;28;20033;-73
2022/07/05 07:35:58;;;;;;;4.45;1.00;;;18.20;99.90;;;;;;5053185;28;20048;-73
2022/07/05 07:38:25;;;;;;;5.30;1.23;;;18.10;99.90;;;;;;5054780;28;20052;-77
2022/07/05 07:40:51;;;;;;;3.55;1.00;;;17.80;99.90;;;;;;5056509;28;20038;-77
2022/07/05 07:43:17;;;;;;;3.67;1.20;;;17.80;99.90;;;;;;5037474;28;20539;-76
2022/07/05 07:45:43;;;;;;;4.18;1.13;;;17.90;99.90;;;;;;5037108;28;20383;-76
2022/07/05 07:48:08;;;;;;;4.72;1.48;;;18.00;99.90;;;;;;5057957;28;20044;-76
2022/07/05 07:50:34;;;;;;;4.70;1.15;;;18.00;99.90;;;;;;5053660;28;20416;-76
2022/07/05 07:53:00;;;;;;;3.63;1.10;;;18.00;99.90;;;;;;5054016;28;20477;-76
2022/07/05 07:55:26;;;;;;;4.40;1.10;;;17.80;99.90;;;;;;5052415;28;20120;-76
2022/07/05 07:57:52;;;;;;;3.65;1.20;;;17.90;99.90;;;;;;5054575;28;20401;-76
2022/07/05 08:00:18;;;;;;;4.28;1.20;;;18.10;99.90;;;;;;5025551;28;20107;-76
2022/07/05 08:02:43;;;;;;;3.65;1.45;;;18.10;99.90;;;;;;5032777;28;20060;-76
2022/07/05 08:05:09;;;;;;;4.93;1.10;;;18.30;99.90;;;;;;5070799;28;20037;-76
2022/07/05 08:07:38;;;;;;;4.65;1.08;;;18.30;99.90;;;;;;5035945;28;20132;-76
2022/07/05 08:10:05;;;;;;;4.47;0.98;;;18.20;99.90;;;;;;5052916;28;20037;-77
2022/07/05 08:12:31;;;;;;;2.80;0.82;;;18.00;99.90;;;;;;5053951;28;20135;-77
2022/07/05 08:14:56;;;;;;;4.25;1.27;;;17.80;99.90;;;;;;5051727;28;20449;-76
2022/07/05 08:17:22;;;;;;;6.32;1.20;;;17.60;99.90;;;;;;5024308;28;20041;-76
2022/07/05 08:22:32;;;;;;;8.35;1.00;;;17.60;99.90;;;;;;5049300;28;20375;-76
2022/07/05 08:24:57;;;;;;;3.63;0.80;;;17.50;99.90;;;;;;5034607;28;20044;-76
2022/07/05 08:27:26;;;;;;;4.82;1.00;;;17.50;99.90;;;;;;5050549;28;20045;-76
2022/07/05 08:29:52;;;;;;;3.25;0.90;;;17.50;99.90;;;;;;5053921;28;20179;-76
2022/07/05 08:32:18;;;;;;;4.13;1.05;;;17.60;99.90;;;;;;5053492;28;20120;-76
2022/07/05 08:34:43;;;;;;;5.63;1.17;;;17.70;99.90;;;;;;5035122;28;20045;-76
2022/07/05 08:37:09;;;;;;;3.28;0.93;;;17.80;99.90;;;;;;5035550;28;20167;-76
2022/07/05 08:39:35;;;;;;;5.32;1.00;;;18.10;99.90;;;;;;5066957;28;20060;-76
2022/07/05 08:42:01;;;;;;;3.88;0.90;;;18.40;99.90;;;;;;5060555;28;20393;-76
2022/07/05 08:44:29;;;;;;;5.35;1.27;;;18.60;99.90;;;;;;5035688;28;20044;-76
2022/07/05 08:46:56;;;;;;;4.18;1.10;;;18.70;99.90;;;;;;5053088;28;20045;-76
2022/07/05 08:49:25;;;;;;;3.80;1.00;;;18.80;99.90;;;;;;5034458;28;20044;-75
2022/07/05 08:51:52;;;;;;;3.17;0.90;;;19.00;99.90;;;;;;5050339;28;20041;-76
2022/07/05 08:54:18;;;;;;;4.35;1.00;;;18.90;99.90;;;;;;5051652;28;20504;-76
2022/07/05 08:56:44;;;;;;;4.03;1.10;;;19.10;99.90;;;;;;5053363;28;20041;-76
2022/07/05 08:59:09;;;;;;;5.32;1.13;;;19.20;99.90;;;;;;5050650;28;20072;-76
2022/07/05 09:01:36;;;;;;;3.08;1.13;;;19.20;99.90;;;;;;5043663;28;20057;-76
2022/07/05 09:04:05;;;;;;;3.33;0.95;;;19.30;99.90;;;;;;5038191;28;20033;-76
2022/07/05 09:06:34;;;;;;;5.25;1.20;;;19.20;99.90;;;;;;5041893;28;20453;-76
2022/07/05 09:09:00;;;;;;;4.25;1.00;;;19.00;99.90;;;;;;5046728;28;20048;-76
2022/07/05 09:11:38;;;;;;;5.95;1.00;;;18.90;99.90;;;;;;5052714;28;20057;-76
2022/07/05 09:14:06;;;;;;;4.18;1.10;;;18.70;99.90;;;;;;5036676;28;20516;-76
2022/07/05 09:16:32;;;;;;;8.25;1.17;;;18.60;99.90;;;;;;5049751;28;20757;-76
2022/07/05 09:19:05;;;;;;;4.18;1.05;;;18.50;99.90;;;;;;5035503;28;20091;-76
2022/07/05 09:21:31;;;;;;;3.95;1.08;;;18.70;99.90;;;;;;5052827;28;20040;-76
2022/07/05 09:23:59;;;;;;;2.60;1.10;;;18.80;99.90;;;;;;5035603;28;20043;-76
2022/07/05 09:26:32;;;;;;;3.78;1.10;;;18.90;99.90;;;;;;5032662;28;20079;-76
2022/07/05 09:28:58;;;;;;;3.20;1.20;;;18.90;99.90;;;;;;5052955;28;20051;-76
2022/07/05 09:31:32;;;;;;;6.07;1.10;;;18.90;99.90;;;;;;5049239;28;20036;-76
2022/07/05 09:34:12;;;;;;;3.88;1.00;;;18.60;99.90;;;;;;5041679;28;20056;-76
2022/07/05 09:36:51;;;;;;;4.43;1.10;;;18.50;99.90;;;;;;5050624;28;20045;-76
2022/07/05 09:39:29;;;;;;;4.55;1.10;;;18.30;99.90;;;;;;5052123;28;20036;-76
2022/07/05 09:42:18;;;;;;;4.22;0.95;;;18.30;99.90;;;;;;5035309;28;20052;-76
2022/07/05 09:44:57;;;;;;;3.80;1.10;;;18.50;99.90;;;;;;5022812;28;20440;-76
2022/07/05 09:47:29;;;;;;;4.22;1.10;;;18.70;99.90;;;;;;5048442;28;20501;-76
2022/07/05 09:49:57;;;;;;;5.55;1.05;;;18.70;99.90;;;;;;5044353;28;20041;-76
2022/07/05 09:52:36;;;;;;;3.65;1.10;;;18.60;99.90;;;;;;5048531;28;20400;-76
2022/07/05 09:55:10;;;;;;;3.47;1.00;;;18.50;99.90;;;;;;5048519;28;20477;-76
2022/07/05 09:57:40;;;;;;;3.10;1.10;;;18.60;99.90;;;;;;5049772;28;20045;-76
2022/07/05 10:00:08;;;;;;;4.13;1.08;;;18.70;99.90;;;;;;5035495;28;20072;-76
2022/07/05 10:02:42;;;;;;;3.92;1.20;;;18.90;99.90;;;;;;5035513;28;20037;-76
2022/07/05 10:05:08;;;;;;;4.13;1.10;;;18.90;99.90;;;;;;5069490;28;20401;-76
2022/07/05 10:07:36;;;;;;;3.35;1.10;;;18.70;99.90;;;;;;5032890;28;20033;-76
2022/07/05 10:10:02;;;;;;;4.15;1.20;;;18.60;99.90;;;;;;5051211;28;20393;-76
2022/07/05 10:12:30;;;;;;;4.07;1.10;;;18.60;99.90;;;;;;5048182;28;20053;-75
2022/07/05 10:14:57;;;;;;;4.10;1.15;;;18.50;99.90;;;;;;5044125;28;20037;-75
2022/07/05 10:17:23;;;;;;;5.32;2.03;;;18.30;99.90;;;;;;5026641;28;20037;-76
2022/07/05 10:19:49;;;;;;;2.58;0.98;;;18.30;99.90;;;;;;5056048;28;20033;-76
2022/07/05 10:22:15;;;;;;;5.63;1.00;;;18.30;99.90;;;;;;5064954;28;20037;-76
2022/07/05 10:24:41;;;;;;;4.55;1.10;;;18.30;99.90;;;;;;5067860;28;20037;-76
2022/07/05 10:27:08;;;;;;;4.78;1.10;;;18.30;99.90;;;;;;5042869;28;20056;-76
2022/07/05 10:29:34;;;;;;;5.47;1.02;;;18.20;99.90;;;;;;5035094;28;20048;-76
2022/07/05 10:32:02;;;;;;;3.78;1.25;;;18.20;99.90;;;;;;5029044;28;20678;-76
2022/07/05 10:34:32;;;;;;;3.55;1.20;;;18.20;99.90;;;;;;5030249;28;20029;-76
2022/07/05 10:36:57;;;;;;;4.25;1.10;;;18.30;99.90;;;;;;5048342;28;20045;-76
2022/07/05 10:39:25;;;;;;;5.13;1.20;;;18.30;99.90;;;;;;5019273;28;20035;-76
2022/07/05 10:41:52;;;;;;;4.50;1.33;;;18.30;99.90;;;;;;5034306;28;20037;-76
2022/07/05 10:44:31;;;;;;;3.45;1.10;;;18.30;99.90;;;;;;5049946;28;20041;-76
2022/07/05 10:47:18;;;;;;;4.05;1.08;;;18.30;99.90;;;;;;5043230;28;20048;-76
2022/07/05 10:49:58;;;;;;;3.90;1.00;;;18.20;99.90;;;;;;5051121;28;20052;-76
2022/07/05 10:52:25;;;;;;;4.65;1.25;;;18.30;99.90;;;;;;5049250;28;20051;-76
2022/07/05 10:55:22;;;;;;;3.35;0.95;;;18.60;99.90;;;;;;5050720;28;20052;-76
2022/07/05 10:58:16;;;;;;;4.75;1.33;;;18.90;99.90;;;;;;5066439;28;20405;-75
2022/07/05 11:00:42;;;;;;;6.07;1.08;;;19.20;99.90;;;;;;5015125;28;20034;-77
2022/07/05 11:03:35;;;;;;;3.75;1.00;;;19.30;99.90;;;;;;5029910;28;20025;-77
2022/07/05 11:06:04;;;;;;;6.38;1.40;;;19.20;99.90;;;;;;5038764;28;20076;-77
2022/07/05 11:08:33;;;;;;;4.75;1.10;;;19.00;99.90;;;;;;5036055;28;21400;-76
2022/07/05 11:11:12;;;;;;;6.22;1.08;;;19.10;99.90;;;;;;5039801;28;20505;-75
2022/07/05 11:13:43;;;;;;;3.15;0.98;;;19.40;99.90;;;;;;5046277;28;20045;-76
2022/07/05 11:16:35;;;;;;;3.28;0.98;;;19.60;99.90;;;;;;5050503;28;20695;-77
2022/07/05 11:19:04;;;;;;;;;;;19.90;99.90;;;;;;5032854;28;20486;-76
2022/07/05 11:21:30;;;;;;;2.88;0.85;;;19.80;99.90;;;;;;5049058;28;20062;-76
2022/07/05 11:24:22;;;;;;;5.35;1.25;;;19.90;99.90;;;;;;5047037;28;20080;-76
2022/07/05 11:26:52;;;;;;;4.85;1.00;;;19.80;99.90;;;;;;5067664;28;20052;-76
2022/07/05 11:29:43;;;;;;;3.40;0.98;;;19.60;99.90;;;;;;5050573;28;20045;-76
2022/07/05 11:32:16;;;;;;;4.60;1.00;;;19.60;99.90;;;;;;5032633;28;21372;-76
2022/07/05 11:34:44;;;;;;;4.20;1.20;;;19.60;99.90;;;;;;5065131;28;20086;-76
2022/07/05 11:37:24;;;;;;;3.33;1.08;;;19.60;99.90;;;;;;5051243;28;20055;-76
2022/07/05 11:40:10;;;;;;;4.32;1.10;;;19.60;99.90;;;;;;5014654;28;20048;-76
2022/07/05 11:42:50;;;;;;;4.75;1.08;;;19.70;99.90;;;;;;5041604;28;20128;-76
2022/07/05 11:45:16;;;;;;;3.88;1.02;;;19.60;99.90;;;;;;5014723;28;20036;-77
2022/07/05 11:47:44;;;;;;;2.42;0.82;;;19.70;99.90;;;;;;5042580;28;20049;-77
2022/07/05 11:50:11;;;;;;;7.05;1.15;;;19.60;99.90;;;;;;5032757;28;20045;-77
2022/07/05 11:52:37;;;;;;;7.65;1.25;;;19.40;99.90;;;;;;5049962;28;20451;-77
2022/07/05 11:55:06;;;;;;;4.03;1.20;;;19.40;99.90;;;;;;5046563;28;20082;-77
2022/07/05 11:57:32;;;;;;;5.97;0.95;;;19.30;99.90;;;;;;5038507;28;20044;-77
2022/07/05 11:59:57;;;;;;;4.00;0.82;;;19.50;99.90;;;;;;5047063;28;20041;-76
2022/07/05 12:02:23;;;;;;;3.97;0.90;;;19.70;99.90;;;;;;5028771;28;20037;-77
2022/07/05 12:04:56;;;;;;;5.18;1.10;;;19.80;99.90;;;;;;5044737;28;20029;-77
2022/07/05 12:07:30;;;;;;;4.15;0.90;;;19.90;99.90;;;;;;5048904;28;20040;-77
2022/07/05 12:12:44;;;;;;;5.70;0.88;;;19.70;99.90;;;;;;5045198;28;20049;-76
2022/07/05 12:15:14;;;;;;;1.80;0.68;;;19.90;99.90;;;;;;5023095;28;20139;-77
2022/07/05 12:17:42;;;;;;;4.28;0.90;;;20.10;99.90;;;;;;5026865;28;20092;-77
2022/07/05 12:20:11;;;;;;;3.40;0.90;;;20.10;99.90;;;;;;5036890;28;20042;-77
2022/07/05 12:22:42;;;;;;;2.05;0.63;;;20.00;99.90;;;;;;5028712;28;20090;-77
2022/07/05 12:25:12;;;;;;;2.63;0.73;;;20.00;99.90;;;;;;5050389;28;20115;-77
2022/07/05 12:27:40;;;;;;;3.35;0.80;;;20.10;99.90;;;;;;5035064;28;20140;-77
2022/07/05 12:30:09;;;;;;;1.75;0.73;;;20.10;99.90;;;;;;5035021;28;20041;-76
2022/07/05 12:32:52;;;;;;;5.50;1.10;;;20.10;99.90;;;;;;5053703;28;20032;-76
2022/07/05 12:35:45;;;;;;;7.80;1.20;;;20.10;99.90;;;;;;5051689;28;20089;-77
2022/07/05 12:38:14;;;;;;;5.38;1.13;;;19.90;99.90;;;;;;5033848;28;20045;-76
2022/07/05 12:40:41;;;;;;;4.18;0.98;;;19.90;99.90;;;;;;5039588;28;20038;-76
2022/07/05 12:43:12;;;;;;;5.53;1.10;;;19.90;99.90;;;;;;5040701;28;20041;-77
2022/07/05 12:45:40;;;;;;;6.43;1.20;;;19.60;99.90;;;;;;5050530;28;20040;-76
2022/07/05 12:48:07;;;;;;;7.10;1.15;;;19.70;99.90;;;;;;5052962;28;20670;-77
2022/07/05 12:50:51;;;;;;;5.43;1.10;;;19.90;99.90;;;;;;5043568;28;20044;-76
2022/07/05 12:58:55;;;;;;;5.78;1.13;;;20.10;99.90;;;;;;5038695;28;20056;-77
2022/07/05 13:01:22;;;;;;;3.35;0.85;;;20.10;99.90;;;;;;5057565;28;20049;-78
2022/07/05 13:04:08;;;;;;;6.20;1.10;;;20.20;99.90;;;;;;5042796;28;20064;-77
2022/07/05 13:06:42;;;;;;;6.63;1.30;;;20.10;99.90;;;;;;5023146;28;20033;-77